createdAt,value
2023-03-13T00:01:20.324Z,97561.78
2023-03-13T00:03:47.482Z,97554.22
2023-03-13T00:06:15.348Z,97551.88
2023-03-13T00:08:43.083Z,97547.47
2023-03-13T00:11:12.388Z,97542.84
2023-03-13T00:13:39.062Z,97535.94
2023-03-13T00:16:10.208Z,97530.25
2023-03-13T00:18:37.453Z,97526.44
2023-03-13T00:21:09.379Z,97522.28
2023-03-13T00:23:38.098Z,97511.19
2023-03-13T00:26:08.716Z,97511.91
2023-03-13T00:28:38.847Z,97500.72
2023-03-13T00:31:27.557Z,97490.72
2023-03-13T00:33:59.531Z,97490.84
2023-03-13T00:36:30.373Z,97482.91
2023-03-13T00:38:57.694Z,97469.56
2023-03-13T00:41:28.245Z,97471.34
2023-03-13T00:43:55.576Z,97469.25
2023-03-13T00:46:26.168Z,97449.84
2023-03-13T00:48:53.218Z,97446.38
2023-03-13T00:51:23.738Z,97433.75
2023-03-13T00:53:50.408Z,97425.41
2023-03-13T00:56:19.081Z,97420.44
2023-03-13T00:58:48.618Z,97413.66
2023-03-13T01:01:18.503Z,97412.22
2023-03-13T01:03:49.949Z,97406.13
2023-03-13T01:06:20.947Z,97409.47
2023-03-13T01:08:48.278Z,97398.91
2023-03-13T01:11:22.140Z,97394.03
2023-03-13T01:13:50.394Z,97388.19
2023-03-13T01:16:21.126Z,97391.78
2023-03-13T01:18:52.072Z,97390.81
2023-03-13T01:21:21.327Z,97391.06
2023-03-13T01:23:50.639Z,97388.69
2023-03-13T01:26:17.469Z,97378.81
2023-03-13T01:28:44.735Z,97371.22
2023-03-13T01:31:24.685Z,97366.81
2023-03-13T01:33:55.985Z,97354.44
2023-03-13T01:36:23.361Z,97359.31
2023-03-13T01:38:53.535Z,97348.00
2023-03-13T01:41:22.039Z,97347.03
2023-03-13T01:43:48.947Z,97343.59
2023-03-13T01:46:30.970Z,97344.19
2023-03-13T01:49:10.834Z,97333.94
2023-03-13T01:51:57.822Z,97319.38
2023-03-13T01:54:32.747Z,97318.19
2023-03-13T01:57:13.538Z,97310.91
2023-03-13T01:59:51.849Z,97310.41
2023-03-13T02:02:18.631Z,97305.03
2023-03-13T02:04:50.718Z,97312.09
2023-03-13T02:07:26.539Z,97305.91
2023-03-13T02:09:56.712Z,97301.75
2023-03-13T02:12:42.090Z,97303.41
2023-03-13T02:15:17.003Z,97293.38
2023-03-13T02:17:46.279Z,97286.59
2023-03-13T02:20:15.344Z,97290.31
2023-03-13T02:22:54.998Z,97279.22
2023-03-13T02:25:24.522Z,97273.38
2023-03-13T02:27:54.919Z,97265.28
2023-03-13T02:30:21.671Z,97260.25
2023-03-13T02:32:48.506Z,97247.94
2023-03-13T02:35:19.871Z,97239.34
2023-03-13T02:37:54.405Z,97222.31
2023-03-13T02:40:28.211Z,97223.16
2023-03-13T02:42:58.840Z,97199.66
2023-03-13T02:45:25.345Z,97206.19
2023-03-13T02:47:51.800Z,97196.97
2023-03-13T02:50:19.409Z,97187.19
2023-03-13T02:53:11.510Z,97194.00
2023-03-13T02:55:42.512Z,97177.28
2023-03-13T02:58:09.118Z,97176.66
2023-03-13T03:00:35.734Z,97175.34
2023-03-13T03:03:02.279Z,97167.22
2023-03-13T03:05:28.784Z,97174.84
2023-03-13T03:07:55.435Z,97162.38
2023-03-13T03:10:21.953Z,97168.09
2023-03-13T03:12:48.405Z,97162.56
2023-03-13T03:15:15.008Z,97164.81
2023-03-13T03:17:41.547Z,97161.63
2023-03-13T03:20:11.886Z,97163.03
2023-03-13T03:22:40.731Z,97168.72
2023-03-13T03:25:09.292Z,97158.66
2023-03-13T03:27:36.723Z,97160.34
2023-03-13T03:30:06.080Z,97147.31
2023-03-13T03:32:32.579Z,97153.69
2023-03-13T03:34:59.166Z,97142.63
2023-03-13T03:37:25.636Z,97140.00
2023-03-13T03:39:52.197Z,97143.78
2023-03-13T03:42:18.739Z,97145.69
2023-03-13T03:44:45.209Z,97133.97
2023-03-13T03:47:11.740Z,97130.84
2023-03-13T03:49:38.269Z,97131.22
2023-03-13T03:52:05.183Z,97120.72
2023-03-13T03:54:31.743Z,97127.19
2023-03-13T03:56:58.225Z,97129.44
2023-03-13T03:59:24.744Z,97138.72
2023-03-13T04:01:51.197Z,97125.84
2023-03-13T04:04:17.820Z,97126.72
2023-03-13T04:06:44.311Z,97128.13
2023-03-13T04:09:10.846Z,97136.69
2023-03-13T04:11:37.338Z,97135.50
2023-03-13T04:14:03.839Z,97135.22
2023-03-13T04:16:30.336Z,97128.88
2023-03-13T04:18:56.867Z,97119.63
2023-03-13T04:21:23.369Z,97107.03
2023-03-13T04:23:49.793Z,97098.56
2023-03-13T04:26:16.414Z,97102.59
2023-03-13T04:28:42.934Z,97098.16
2023-03-13T04:31:09.508Z,97079.09
2023-03-13T04:33:36.852Z,97081.97
2023-03-13T04:36:04.185Z,97088.47
2023-03-13T04:38:30.707Z,97070.63
2023-03-13T04:40:57.244Z,97072.59
2023-03-13T04:43:23.710Z,97077.72
2023-03-13T04:45:56.271Z,97076.72
2023-03-13T04:48:22.872Z,97073.53
2023-03-13T04:50:49.662Z,97071.66
2023-03-13T04:53:16.153Z,97054.41
2023-03-13T04:55:42.774Z,97053.16
2023-03-13T04:58:09.224Z,97044.72
2023-03-13T05:00:35.780Z,97049.41
2023-03-13T05:03:02.295Z,97054.09
2023-03-13T05:05:28.843Z,97065.75
2023-03-13T05:07:55.380Z,97059.38
2023-03-13T05:10:21.861Z,97057.63
2023-03-13T05:12:48.459Z,97059.53
2023-03-13T05:15:15.018Z,97057.88
2023-03-13T05:17:41.557Z,97049.69
2023-03-13T05:20:11.251Z,97031.16
2023-03-13T05:22:38.591Z,97043.19
2023-03-13T05:25:05.851Z,97029.38
2023-03-13T05:27:32.402Z,97032.69
2023-03-13T05:29:58.967Z,97021.19
2023-03-13T05:32:25.725Z,97025.06
2023-03-13T05:34:52.297Z,97022.16
2023-03-13T05:37:18.833Z,97012.50
2023-03-13T05:39:45.395Z,97004.88
2023-03-13T05:42:11.828Z,97008.78
2023-03-13T05:44:38.334Z,97006.00
2023-03-13T05:47:05.088Z,97008.06
2023-03-13T05:49:31.604Z,97009.75
2023-03-13T05:51:58.064Z,97002.81
2023-03-13T05:54:24.562Z,97010.00
2023-03-13T05:56:52.081Z,97012.50
2023-03-13T05:59:18.585Z,97007.94
2023-03-13T06:01:45.096Z,97012.78
2023-03-13T06:04:11.950Z,97006.13
2023-03-13T06:06:38.643Z,97002.09
2023-03-13T06:09:05.904Z,97016.78
2023-03-13T06:11:32.501Z,97006.00
2023-03-13T06:13:59.360Z,97017.34
2023-03-13T06:16:25.868Z,97016.38
2023-03-13T06:18:52.350Z,97015.13
2023-03-13T06:21:18.925Z,97011.38
2023-03-13T06:23:45.468Z,97009.44
2023-03-13T06:26:12.061Z,97005.41
2023-03-13T06:28:38.582Z,97000.69
2023-03-13T06:31:07.095Z,97003.50
2023-03-13T06:33:34.760Z,97011.22
2023-03-13T06:36:03.324Z,97003.22
2023-03-13T06:38:30.478Z,97009.16
2023-03-13T06:40:57.374Z,97015.66
2023-03-13T06:43:24.319Z,97021.19
2023-03-13T06:45:51.069Z,97016.63
2023-03-13T06:48:18.493Z,97017.28
2023-03-13T06:50:45.497Z,97015.09
2023-03-13T06:53:18.850Z,97003.06
2023-03-13T06:55:47.282Z,96989.44
2023-03-13T06:58:28.736Z,96976.25
2023-03-13T07:00:58.215Z,96980.25
2023-03-13T07:03:25.004Z,96985.38
2023-03-13T07:05:59.364Z,96988.16
2023-03-13T07:08:27.075Z,96991.88
2023-03-13T07:10:59.309Z,96993.97
2023-03-13T07:13:26.405Z,97003.91
2023-03-13T07:15:53.897Z,97008.19
2023-03-13T07:18:22.262Z,97020.28
2023-03-13T07:20:57.050Z,97023.44
2023-03-13T07:23:26.050Z,97029.53
2023-03-13T07:25:55.071Z,97039.25
2023-03-13T07:28:22.912Z,97038.72
2023-03-13T07:30:49.885Z,97035.75
2023-03-13T07:33:17.697Z,97036.75
2023-03-13T07:35:53.323Z,97038.41
2023-03-13T07:38:20.351Z,97039.03
2023-03-13T07:40:52.113Z,97031.84
2023-03-13T07:43:19.510Z,97035.69
2023-03-13T07:45:59.216Z,97032.47
2023-03-13T07:48:34.139Z,97024.28
2023-03-13T07:51:01.201Z,97029.66
2023-03-13T07:53:30.385Z,97029.94
2023-03-13T07:56:04.009Z,97032.56
2023-03-13T07:58:34.913Z,97031.75
2023-03-13T08:01:01.857Z,97043.13
2023-03-13T08:03:29.968Z,97044.03
2023-03-13T08:06:02.561Z,97044.78
2023-03-13T08:08:30.194Z,97055.56
2023-03-13T08:11:06.604Z,97042.00
2023-03-13T08:13:35.551Z,97032.28
2023-03-13T08:16:15.173Z,97041.75
2023-03-13T08:18:48.237Z,97023.13
2023-03-13T08:21:19.137Z,97025.56
2023-03-13T08:23:45.742Z,97010.09
2023-03-13T08:26:16.345Z,96999.09
2023-03-13T08:28:45.177Z,97004.53
2023-03-13T08:31:14.413Z,96985.84
2023-03-13T08:33:43.907Z,96983.63
2023-03-13T08:36:27.859Z,96978.88
2023-03-13T08:38:58.921Z,96972.03
2023-03-13T08:41:28.991Z,96961.34
2023-03-13T08:43:57.199Z,96967.72
2023-03-13T08:46:25.297Z,96967.06
2023-03-13T08:48:54.346Z,96959.03
2023-03-13T08:51:27.685Z,96950.06
2023-03-13T08:53:55.995Z,96961.78
2023-03-13T08:56:28.564Z,96954.88
2023-03-13T08:58:59.564Z,96954.34
2023-03-13T09:01:30.197Z,96965.00
2023-03-13T09:03:57.890Z,96952.19
2023-03-13T09:06:24.629Z,96955.28
2023-03-13T09:08:51.162Z,96954.75
2023-03-13T09:11:21.511Z,96954.44
2023-03-13T09:13:51.078Z,96953.94
2023-03-13T09:16:20.373Z,96955.44
2023-03-13T09:18:47.685Z,96946.53
2023-03-13T09:21:30.725Z,96957.81
2023-03-13T09:23:58.067Z,96947.63
2023-03-13T09:26:26.091Z,96947.31
2023-03-13T09:28:53.567Z,96941.03
2023-03-13T09:31:24.539Z,96930.16
2023-03-13T09:33:52.329Z,96934.84
2023-03-13T09:36:22.304Z,96931.72
2023-03-13T09:38:51.222Z,96941.16
2023-03-13T09:41:17.696Z,96948.47
2023-03-13T09:43:50.491Z,96940.28
2023-03-13T09:46:45.420Z,96939.44
2023-03-13T09:49:29.021Z,96927.00
2023-03-13T09:52:14.602Z,96929.00
2023-03-13T09:54:54.456Z,96932.88
2023-03-13T09:57:52.792Z,96947.94
2023-03-13T10:00:29.221Z,96947.75
2023-03-13T10:03:05.837Z,96943.81
2023-03-13T10:05:33.822Z,96958.03
2023-03-13T10:08:23.093Z,96955.44
2023-03-13T10:11:00.886Z,96958.28
2023-03-13T10:13:51.425Z,96969.88
2023-03-13T10:16:30.111Z,96966.09
2023-03-13T10:19:15.374Z,96961.91
2023-03-13T10:21:47.939Z,96951.47
2023-03-13T10:24:30.635Z,96946.34
2023-03-13T10:26:57.972Z,96945.50
2023-03-13T10:29:31.576Z,96938.22
2023-03-13T10:32:01.842Z,96947.97
2023-03-13T10:35:00.740Z,96947.13
2023-03-13T10:37:43.314Z,96942.66
2023-03-13T10:40:27.092Z,96931.19
2023-03-13T10:43:06.385Z,96934.19
2023-03-13T10:45:37.830Z,96924.13
2023-03-13T10:48:36.642Z,96939.50
2023-03-13T10:51:03.166Z,96929.09
2023-03-13T10:53:29.662Z,96925.16
2023-03-13T10:56:24.216Z,96921.97
2023-03-13T10:58:53.327Z,96912.22
2023-03-13T11:01:32.010Z,96897.72
2023-03-13T11:04:00.659Z,96899.72
2023-03-13T11:06:35.650Z,96894.59
2023-03-13T11:09:15.169Z,96891.31
2023-03-13T11:11:52.770Z,96896.13
2023-03-13T11:14:25.750Z,96892.84
2023-03-13T11:16:56.252Z,96895.34
2023-03-13T11:19:55.023Z,96889.22
2023-03-13T11:22:46.495Z,96881.91
2023-03-13T11:25:28.116Z,96876.34
2023-03-13T11:28:25.107Z,96872.56
2023-03-13T11:31:14.186Z,96871.03
2023-03-13T11:34:02.257Z,96865.78
2023-03-13T11:36:36.326Z,96863.66
2023-03-13T11:39:09.378Z,96865.22
2023-03-13T11:42:46.996Z,96860.00
2023-03-13T11:45:37.710Z,96855.41
2023-03-13T11:48:36.047Z,96844.50
2023-03-13T11:51:40.962Z,96843.19
2023-03-13T11:54:32.213Z,96831.78
2023-03-13T11:57:12.295Z,96831.44
2023-03-13T12:00:17.287Z,96827.03
2023-03-13T12:02:57.680Z,96821.56
2023-03-13T12:05:28.540Z,96806.88
2023-03-13T12:08:09.652Z,96800.59
2023-03-13T12:10:48.713Z,96803.56
2023-03-13T12:13:35.467Z,96788.00
2023-03-13T12:16:13.258Z,96792.34
2023-03-13T12:18:43.812Z,96777.56
2023-03-13T12:21:40.413Z,96778.75
2023-03-13T12:24:29.922Z,96782.69
2023-03-13T12:27:17.730Z,96778.88
2023-03-13T12:30:12.175Z,96774.22
2023-03-13T12:32:59.161Z,96779.66
2023-03-13T12:35:33.120Z,96771.47
2023-03-13T12:38:29.853Z,96762.50
2023-03-13T12:41:20.726Z,96768.81
2023-03-13T12:44:07.261Z,96775.09
2023-03-13T12:47:00.320Z,96768.13
2023-03-13T12:49:45.120Z,96763.50
2023-03-13T12:52:32.670Z,96752.28
2023-03-13T12:55:33.747Z,96750.13
2023-03-13T12:58:31.386Z,96755.44
2023-03-13T13:01:03.985Z,96755.59
2023-03-13T13:03:38.915Z,96743.38
2023-03-13T13:06:14.532Z,96741.22
2023-03-13T13:09:08.101Z,96734.75
2023-03-13T13:11:37.521Z,96736.09
2023-03-13T13:14:16.926Z,96726.53
2023-03-13T13:16:53.787Z,96720.91
2023-03-13T13:19:23.176Z,96711.00
2023-03-13T13:22:39.527Z,96720.41
2023-03-13T13:25:18.185Z,96713.31
2023-03-13T13:27:47.043Z,96709.63
2023-03-13T13:30:19.482Z,96707.31
2023-03-13T13:32:56.914Z,96707.16
2023-03-13T13:35:32.015Z,96696.72
2023-03-13T13:38:17.366Z,96693.28
2023-03-13T13:41:02.763Z,96685.19
2023-03-13T13:43:45.283Z,96685.53
2023-03-13T13:46:33.578Z,96667.19
2023-03-13T13:49:06.498Z,96661.75
2023-03-13T13:51:59.313Z,96661.75
2023-03-13T13:54:53.314Z,96657.28
2023-03-13T13:57:29.892Z,96653.47
2023-03-13T14:00:20.720Z,96638.81
2023-03-13T14:02:56.866Z,96631.00
2023-03-13T14:05:27.397Z,96628.69
2023-03-13T14:08:29.506Z,96627.03
2023-03-13T14:11:22.563Z,96614.09
2023-03-13T14:14:21.158Z,96614.72
2023-03-13T14:16:52.200Z,96612.84
2023-03-13T14:19:30.517Z,96599.41
2023-03-13T14:22:04.621Z,96602.41
2023-03-13T14:24:31.623Z,96592.41
2023-03-13T14:26:58.299Z,96596.72
2023-03-13T14:29:25.996Z,96589.16
2023-03-13T14:31:59.455Z,96587.38
2023-03-13T14:34:30.393Z,96578.25
2023-03-13T14:37:17.141Z,96564.97
2023-03-13T14:39:46.333Z,96558.03
2023-03-13T14:42:17.275Z,96565.16
2023-03-13T14:44:47.424Z,96555.72
2023-03-13T14:47:24.274Z,96566.03
2023-03-13T14:49:59.176Z,96544.19
2023-03-13T14:52:29.879Z,96540.19
2023-03-13T14:55:02.291Z,96534.44
2023-03-13T14:57:29.077Z,96533.41
2023-03-13T15:00:54.853Z,96523.53
2023-03-13T15:03:28.508Z,96520.19
2023-03-13T15:06:09.907Z,96537.41
2023-03-13T15:08:43.881Z,96538.41
2023-03-13T15:11:54.892Z,96510.25
2023-03-13T15:14:43.683Z,96504.41
2023-03-13T15:17:20.514Z,96497.56
2023-03-13T15:19:54.263Z,96480.81
2023-03-13T15:22:36.235Z,96481.75
2023-03-13T15:25:07.423Z,96477.69
2023-03-13T15:27:34.638Z,96469.94
2023-03-13T15:30:01.114Z,96467.94
2023-03-13T15:32:34.680Z,96467.66
2023-03-13T15:35:02.134Z,96473.94
2023-03-13T15:37:30.518Z,96455.94
2023-03-13T15:39:57.943Z,96454.28
2023-03-13T15:42:25.613Z,96453.53
2023-03-13T15:44:52.121Z,96440.28
2023-03-13T15:47:21.993Z,96439.28
2023-03-13T15:49:48.876Z,96431.81
2023-03-13T15:52:20.239Z,96430.72
2023-03-13T15:54:47.039Z,96438.06
2023-03-13T15:57:17.921Z,96427.47
2023-03-13T15:59:44.923Z,96415.88
2023-03-13T16:02:21.044Z,96416.41
2023-03-13T16:04:48.166Z,96411.66
2023-03-13T16:07:20.187Z,96410.59
2023-03-13T16:09:47.723Z,96410.50
2023-03-13T16:12:14.239Z,96403.38
2023-03-13T16:14:40.788Z,96396.47
2023-03-13T16:17:17.279Z,96404.38
2023-03-13T16:19:44.915Z,96396.25
2023-03-13T16:22:12.021Z,96398.56
2023-03-13T16:24:39.381Z,96391.38
2023-03-13T16:27:16.073Z,96381.81
2023-03-13T16:29:43.681Z,96371.97
2023-03-13T16:32:16.817Z,96370.34
2023-03-13T16:34:43.330Z,96374.81
2023-03-13T16:37:18.909Z,96360.94
2023-03-13T16:39:47.178Z,96359.41
2023-03-13T16:42:13.896Z,96336.09
2023-03-13T16:44:40.792Z,96321.19
2023-03-13T16:47:27.121Z,96324.16
2023-03-13T16:49:53.904Z,96339.16
2023-03-13T16:52:20.356Z,96317.03
2023-03-13T16:54:47.481Z,96333.53
2023-03-13T16:57:24.611Z,96318.38
2023-03-13T16:59:51.642Z,96328.94
2023-03-13T17:02:20.718Z,96333.09
2023-03-13T17:04:48.227Z,96343.19
2023-03-13T17:07:26.701Z,96335.03
2023-03-13T17:09:53.666Z,96332.28
2023-03-13T17:12:20.506Z,96332.34
2023-03-13T17:14:47.637Z,96334.72
2023-03-13T17:17:22.450Z,96346.47
2023-03-13T17:19:49.242Z,96356.03
2023-03-13T17:22:17.874Z,96363.66
2023-03-13T17:24:44.505Z,96355.94
2023-03-13T17:27:17.155Z,96363.69
2023-03-13T17:29:44.888Z,96372.75
2023-03-13T17:32:13.128Z,96369.66
2023-03-13T17:34:40.820Z,96374.31
2023-03-13T17:37:21.765Z,96353.88
2023-03-13T17:39:51.254Z,96346.25
2023-03-13T17:42:18.590Z,96330.41
2023-03-13T17:44:45.299Z,96334.69
2023-03-13T17:47:15.607Z,96338.34
2023-03-13T17:49:43.947Z,96329.59
2023-03-13T17:52:15.412Z,96304.06
2023-03-13T17:54:43.420Z,96324.34
2023-03-13T17:57:18.643Z,96304.09
2023-03-13T17:59:46.949Z,96273.09
2023-03-13T18:02:16.628Z,96313.03
2023-03-13T18:04:43.695Z,96337.72
2023-03-13T18:07:29.604Z,96328.34
2023-03-13T18:09:56.092Z,96321.09
2023-03-13T18:12:22.590Z,96293.72
2023-03-13T18:14:49.068Z,96273.47
2023-03-13T18:17:18.701Z,96291.78
2023-03-13T18:19:46.280Z,96312.19
2023-03-13T18:22:16.652Z,96281.38
2023-03-13T18:24:43.498Z,96277.78
2023-03-13T18:27:17.577Z,96297.19
2023-03-13T18:29:46.644Z,96283.50
2023-03-13T18:32:18.862Z,96299.50
2023-03-13T18:34:45.910Z,96312.50
2023-03-13T18:37:24.647Z,96322.91
2023-03-13T18:39:51.405Z,96318.97
2023-03-13T18:42:18.623Z,96319.94
2023-03-13T18:44:45.158Z,96325.56
2023-03-13T18:47:21.621Z,96332.78
2023-03-13T18:49:49.867Z,96344.97
2023-03-13T18:52:17.301Z,96362.47
2023-03-13T18:54:44.763Z,96368.38
2023-03-13T18:57:14.616Z,96354.19
2023-03-13T18:59:41.817Z,96349.75
2023-03-13T19:02:18.291Z,96337.53
2023-03-13T19:04:47.000Z,96338.69
2023-03-13T19:07:27.519Z,96307.56
2023-03-13T19:09:54.330Z,96303.91
2023-03-13T19:12:20.836Z,96311.69
2023-03-13T19:14:47.479Z,96299.81
2023-03-13T19:17:23.920Z,96302.09
2023-03-13T19:19:50.424Z,96287.69
2023-03-13T19:22:16.950Z,96279.84
2023-03-13T19:24:43.535Z,96276.94
2023-03-13T19:27:14.421Z,96278.03
2023-03-13T19:29:40.915Z,96288.38
2023-03-13T19:32:13.396Z,96275.56
2023-03-13T19:34:39.885Z,96243.16
2023-03-13T19:37:09.428Z,96255.31
2023-03-13T19:39:36.409Z,96273.13
2023-03-13T19:42:05.906Z,96257.28
2023-03-13T19:44:32.403Z,96235.06
2023-03-13T19:47:00.390Z,96247.06
2023-03-13T19:49:28.059Z,96237.84
2023-03-13T19:51:54.832Z,96225.34
2023-03-13T19:54:22.390Z,96220.72
2023-03-13T19:56:49.917Z,96220.38
2023-03-13T19:59:26.811Z,96234.53
2023-03-13T20:01:55.667Z,96251.94
2023-03-13T20:04:22.266Z,96282.00
2023-03-13T20:06:48.717Z,96270.97
2023-03-13T20:09:17.999Z,96268.63
2023-03-13T20:11:45.136Z,96274.56
2023-03-13T20:14:11.961Z,96275.56
2023-03-13T20:16:39.282Z,96268.63
2023-03-13T20:19:06.584Z,96277.84
2023-03-13T20:21:37.166Z,96271.94
2023-03-13T20:24:04.419Z,96267.19
2023-03-13T20:26:31.377Z,96267.31
2023-03-13T20:28:58.479Z,96269.59
2023-03-13T20:31:31.782Z,96250.63
2023-03-13T20:33:59.713Z,96246.50
2023-03-13T20:36:27.922Z,96232.03
2023-03-13T20:38:54.666Z,96240.53
2023-03-13T20:41:24.709Z,96235.22
2023-03-13T20:43:52.718Z,96242.78
2023-03-13T20:46:20.052Z,96248.00
2023-03-13T20:48:46.729Z,96246.31
2023-03-13T20:51:13.322Z,96245.25
2023-03-13T20:53:41.698Z,96245.56
2023-03-13T20:56:10.737Z,96238.28
2023-03-13T20:58:37.978Z,96221.69
2023-03-13T21:01:06.586Z,96235.13
2023-03-13T21:03:35.625Z,96228.69
2023-03-13T21:06:13.105Z,96225.53
2023-03-13T21:08:40.048Z,96231.13
2023-03-13T21:11:20.458Z,96228.66
2023-03-13T21:13:48.666Z,96243.56
2023-03-13T21:16:18.339Z,96230.31
2023-03-13T21:18:45.191Z,96218.19
2023-03-13T21:21:17.236Z,96207.53
2023-03-13T21:23:45.361Z,96187.53
2023-03-13T21:26:13.371Z,96181.88
2023-03-13T21:28:40.578Z,96187.28
2023-03-13T21:31:09.616Z,96184.84
2023-03-13T21:33:36.214Z,96179.88
2023-03-13T21:36:02.833Z,96176.56
2023-03-13T21:38:29.376Z,96177.69
2023-03-13T21:40:55.923Z,96201.13
2023-03-13T21:43:23.697Z,96211.19
2023-03-13T21:45:50.199Z,96207.44
2023-03-13T21:48:16.745Z,96211.56
2023-03-13T21:50:43.276Z,96224.91
2023-03-13T21:53:09.740Z,96224.34
2023-03-13T21:55:39.658Z,96236.94
2023-03-13T21:58:06.112Z,96251.00
2023-03-13T22:00:34.029Z,96259.69
2023-03-13T22:03:00.715Z,96266.47
2023-03-13T22:05:27.278Z,96275.16
2023-03-13T22:07:55.515Z,96277.09
2023-03-13T22:10:22.080Z,96275.03
2023-03-13T22:12:48.540Z,96273.03
2023-03-13T22:15:15.047Z,96278.78
2023-03-13T22:17:41.496Z,96277.09
2023-03-13T22:20:10.293Z,96285.06
2023-03-13T22:22:36.827Z,96289.59
2023-03-13T22:25:03.638Z,96292.84
2023-03-13T22:27:30.195Z,96273.56
2023-03-13T22:29:56.994Z,96265.78
2023-03-13T22:32:24.303Z,96276.25
2023-03-13T22:34:50.892Z,96269.50
2023-03-13T22:37:19.602Z,96276.16
2023-03-13T22:39:46.054Z,96264.75
2023-03-13T22:42:12.567Z,96275.50
2023-03-13T22:44:39.016Z,96282.44
2023-03-13T22:47:05.507Z,96273.00
2023-03-13T22:49:32.065Z,96267.03
2023-03-13T22:51:59.309Z,96272.81
2023-03-13T22:54:25.934Z,96257.13
2023-03-13T22:56:52.498Z,96257.63
2023-03-13T22:59:19.332Z,96249.31
2023-03-13T23:01:45.794Z,96229.25
2023-03-13T23:04:12.267Z,96228.50
2023-03-13T23:06:38.780Z,96227.84
2023-03-13T23:09:06.303Z,96218.38
2023-03-13T23:11:34.124Z,96201.13
2023-03-13T23:14:00.591Z,96195.50
2023-03-13T23:16:27.302Z,96188.31
2023-03-13T23:18:53.777Z,96200.47
2023-03-13T23:21:20.500Z,96192.13
2023-03-13T23:23:47.211Z,96179.75
2023-03-13T23:26:16.187Z,96187.47
2023-03-13T23:28:43.009Z,96198.38
2023-03-13T23:31:13.215Z,96194.94
2023-03-13T23:33:39.956Z,96175.91
2023-03-13T23:36:10.174Z,96180.25
2023-03-13T23:38:36.702Z,96185.81
2023-03-13T23:41:09.750Z,96184.16
2023-03-13T23:43:36.513Z,96187.78
2023-03-13T23:46:04.480Z,96202.72
2023-03-13T23:48:31.682Z,96202.13
2023-03-13T23:50:58.258Z,96218.69
2023-03-13T23:53:24.780Z,96219.13
2023-03-13T23:55:58.752Z,96221.84
2023-03-13T23:58:25.571Z,96199.63
